Airfield :







YOU CAN JOIN US ON...

 
LOGIN :

Register | Disclaimer

   EN    FR    IT 

 









Legend :    VFR   Marginal VFR   IFR   Intensive IFR   Very Intensive IFR
Visi :
Ceiling :
>= 8 km
>= 3000ft
5 to 8 km
1000 to 3000 ft
1500m to 5 km
500 to 1000 ft
800 to 1500m
200 to 500 ft
< 800m
< 200 ft
Symbols :   Thunderstorms  Fog  Heavy snow  Heavy precipitations  Wind > 20 kt







- Airport Elevation : 215 ft
- IATA code : MSS


KMSS - Massena International Richards Field

CURRENT METAR :
  • 190553Z AUTO 00000KT 10SM CLR 05/04 A3032 RMK AO2 SLP270 T00500039 10128 20039 53002

EXPIRED METARs :
  • 190453Z AUTO 08003KT 10SM CLR 06/04 A3031 RMK AO2 SLP267 T00610044 402000039
  • 190353Z AUTO 00000KT 10SM CLR 07/05 A3032 RMK AO2 SLP268 T00720050

TAF KMSS
Valid from the 19 at 06:00 until the 20 at 06:00 UTC


190525Z 1906/2006 00000KT P6SM SKC
TEMPO 1909/1912 1/2SM FG BKN001
FM191300 20006KT P6SM FEW250
FM192000 25005KT P6SM SCT150
No reported NOTAMs for that airfield.



MET'MAP, your aeronautical weather chart ! - Copyright ORBIFLY December 2007 - Disclaimer

ORBIFLY MET'MAP TEAM :

Programming & Development : Alexandra Zaïnal
Concept & Development : Baudouin d'Aumeries
Co-Development & Prog : Marc-Olivier Méhu
Technical & hardware support : Manuel Goepfert

Contact : metmap@orbifly.com




SOURCES & CREDITS :

   NOAA